Latest Weather Observations for PORTABLE RFSNSW07

IDN60801

Issued at 8:32 pm EST Tuesday 21 May 2019 (issued every 10 minutes, with the page automatically refreshed every 10 minutes)

About weather observations | Map of weather stations | Latest weather observations for NSW | Other Formats
Station Details ID: 250053 Name: PORTABLE RFSNSW07 Lat: -33.67 Lon: 150.56 Height: 412.0 m
Data from the previous 72 hours. | See also: Recent months for locations in New South Wales
Date/Time
EST
Temp
°C
App
Temp
°C
Dew
Point
°C
Rel
Hum
%
Delta-T
°C
Wind Press
QNH
hPa
Press
MSL
hPa
Rain since
9am
mm
Dir  Spd
km/h
Gust
km/h
Spd
kts
Gust
kts
21/05:50am 11.9 - 9.7 86 1.1 - - - - - - - 0.0
21/05:40am 12.4 - 9.7 83 1.4 - - - - - - - 0.0
21/05:30am 12.3 - 9.7 84 1.4 - - - - - - - 0.0
21/05:20am 12.3 - 9.7 84 1.4 - - - - - - - 0.0
21/05:10am 12.3 - 9.6 83 1.4 - - - - - - - 0.0
21/05:00am 12.0 - 9.6 85 1.2 - - - - - - - 0.0
21/04:50am 11.8 - 9.5 86 1.2 - - - - - - - 0.0
21/04:40am 11.7 - 9.3 85 1.2 - - - - - - - 0.0
21/04:30am 11.6 - 9.4 86 1.1 - - - - - - - 0.0
21/04:20am 12.0 - 9.5 85 1.3 - - - - - - - 0.0
21/04:10am 12.1 - 9.4 83 1.4 - - - - - - - 0.0
21/04:00am 12.2 - 9.5 83 1.4 - - - - - - - 0.0
21/03:30am 12.7 - 9.3 80 1.8 - - - - - - - 0.0
21/03:20am 12.3 - 9.1 81 1.6 - - - - - - - 0.0
21/03:10am 12.0 - 9.1 82 1.5 - - - - - - - 0.0
21/03:00am 12.2 - 9.1 81 1.6 - - - - - - - 0.0
21/02:50am 12.6 - 9.1 79 1.8 - - - - - - - 0.0
21/02:40am 12.3 - 8.7 79 1.8 - - - - - - - 0.0
21/02:30am 12.3 - 8.7 79 1.8 - - - - - - - 0.0
21/02:20am 12.4 - 8.8 79 1.8 - - - - - - - 0.0
 
Date/Time
EST
Temp
°C
App
Temp
°C
Dew
Point
°C
Rel
Hum
%
Delta-T
°C
Wind Press
QNH
hPa
Press
MSL
hPa
Rain since
9am
mm
Dir  Spd
km/h
Gust
km/h
Spd
kts
Gust
kts
20/04:30pm 19.9 - 13.0 64 4.0 - - - - - - - 0.0
20/04:20pm 20.0 - 12.8 63 4.1 - - - - - - - 0.0
20/04:10pm 20.1 - 12.9 63 4.2 - - - - - - - 0.0
20/04:00pm 20.5 - 12.8 61 4.4 - - - - - - - 0.0
20/03:50pm 20.7 - 12.4 59 4.8 - - - - - - - 0.0
20/03:40pm 21.0 - 12.5 58 4.9 - - - - - - - 0.0
20/03:30pm 21.8 - 12.6 56 5.3 - - - - - - - 0.0
20/03:20pm 22.7 - 12.8 53 5.8 - - - - - - - 0.0
20/03:10pm 22.9 - 12.2 51 6.2 - - - - - - - 0.0
20/03:00pm 22.4 - 12.8 54 5.6 - - - - - - - 0.0
20/02:50pm 22.1 - 12.3 53 5.6 - - - - - - - 0.0
20/02:40pm 21.4 - 12.2 55 5.3 - - - - - - - 0.0
20/02:30pm 22.2 - 12.9 55 5.4 - - - - - - - 0.0
20/02:20pm 22.6 - 13.0 54 5.6 - - - - - - - 0.0
20/02:10pm 22.9 - 12.6 52 6.0 - - - - - - - 0.0
20/02:00pm 22.6 - 13.4 56 5.4 - - - - - - - 0.0
20/01:50pm 22.0 - 12.6 55 5.4 - - - - - - - 0.0
20/01:40pm 21.8 - 13.5 59 4.9 - - - - - - - 0.0
20/01:30pm 21.0 - 13.2 61 4.5 - - - - - - - 0.0
20/01:20pm 21.9 - 13.4 58 5.0 - - - - - - - 0.0
20/01:10pm 23.3 - 13.3 53 5.9 - - - - - - - 0.0
20/01:00pm 22.8 - 9.3 42 7.4 - - - - - - - 0.0
20/12:50pm 22.5 - 9.4 43 7.2 - - - - - - - 0.0
20/12:40pm 23.5 - 9.3 40 7.8 - - - - - - - 0.0
20/04:50am 11.4 - 10.1 92 0.7 - - - - - - - 0.0
20/04:40am 11.5 - 10.1 91 0.7 - - - - - - - 0.0
20/04:30am 11.7 - 10.2 90 0.8 - - - - - - - 0.0
20/04:20am 11.5 - 10.3 92 0.6 - - - - - - - 0.0
20/04:10am 11.5 - 10.2 92 0.7 - - - - - - - 0.0
20/04:00am 11.7 - 10.3 91 0.7 - - - - - - - 0.0
20/03:50am 11.7 - 10.4 92 0.7 - - - - - - - 0.0
20/03:40am 11.8 - 10.3 90 0.8 - - - - - - - 0.0
20/03:30am 12.0 - 10.5 90 0.8 - - - - - - - 0.0
20/03:20am 12.2 - 10.5 89 0.9 - - - - - - - 0.0
20/03:10am 12.4 - 10.5 88 1.0 - - - - - - - 0.0
20/03:00am 12.3 - 10.5 89 1.0 - - - - - - - 0.0
20/02:50am 12.0 - 10.6 91 0.7 - - - - - - - 0.0
20/02:40am 11.8 - 10.6 92 0.6 - - - - - - - 0.0
20/02:30am 11.8 - 10.7 93 0.6 - - - - - - - 0.0
20/02:20am 11.8 - 10.7 93 0.6 - - - - - - - 0.0
20/02:10am 11.9 - 10.7 92 0.6 - - - - - - - 0.0
20/02:00am 12.0 - 10.9 93 0.6 - - - - - - - 0.0
20/01:50am 12.0 - 11.0 94 0.5 - - - - - - - 0.0
20/01:40am 11.9 - 10.9 94 0.5 - - - - - - - 0.0
20/01:30am 12.0 - 11.0 94 0.5 - - - - - - - 0.0
20/01:20am 12.1 - 11.1 94 0.5 - - - - - - - 0.0
20/01:10am 12.4 - 11.3 93 0.6 - - - - - - - 0.0
20/01:00am 12.6 - 11.5 93 0.6 - - - - - - - 0.0
20/12:50am 12.6 - 11.5 93 0.6 - - - - - - - 0.0
20/12:40am 12.7 - 11.5 92 0.6 - - - - - - - 0.0
20/12:30am 12.9 - 11.6 92 0.7 - - - - - - - 0.0
20/12:20am 13.1 - 11.7 91 0.8 - - - - - - - 0.0
20/12:00am 13.2 - 11.8 91 0.8 - - - - - - - 0.0
 
Date/Time
EST
Temp
°C
App
Temp
°C
Dew
Point
°C
Rel
Hum
%
Delta-T
°C
Wind Press
QNH
hPa
Press
MSL
hPa
Rain since
9am
mm
Dir  Spd
km/h
Gust
km/h
Spd
kts
Gust
kts
19/11:50pm 13.4 - 12.0 91 0.8 - - - - - - - 0.0
19/11:40pm 13.5 - 12.0 91 0.8 - - - - - - - 0.0
19/11:30pm 13.7 - 12.0 89 0.9 - - - - - - - 0.0
19/11:20pm 13.8 - 12.1 89 0.9 - - - - - - - 0.0
19/11:10pm 13.8 - 12.1 89 0.9 - - - - - - - 0.0
19/11:00pm 13.8 - 12.2 90 0.9 - - - - - - - 0.0
19/10:50pm 13.9 - 12.2 89 0.9 - - - - - - - 0.0
19/10:40pm 13.9 - 12.2 89 0.9 - - - - - - - 0.0
19/10:30pm 13.8 - 12.2 90 0.9 - - - - - - - 0.0
19/10:20pm 13.8 - 12.2 90 0.9 - - - - - - - 0.0
19/10:10pm 13.8 - 12.1 89 0.9 - - - - - - - 0.0
19/10:00pm 13.8 - 12.1 89 0.9 - - - - - - - 0.0
19/09:50pm 13.8 - 12.1 89 0.9 - - - - - - - 0.0
19/09:40pm 13.9 - 12.1 89 1.0 - - - - - - - 0.0
19/09:30pm 13.9 - 12.1 89 1.0 - - - - - - - 0.0
19/09:20pm 14.0 - 12.1 88 1.0 - - - - - - - 0.0
19/09:10pm 13.9 - 12.1 89 1.0 - - - - - - - 0.0
19/09:00pm 13.8 - 12.1 89 0.9 - - - - - - - 0.0
19/08:50pm 13.7 - 12.1 90 0.9 - - - - - - - 0.0
19/08:40pm 13.7 - 12.1 90 0.9 - - - - - - - 0.0
19/08:30pm 13.7 - 12.1 90 0.9 - - - - - - - 0.0
19/08:20pm 13.7 - 12.1 90 0.9 - - - - - - - 0.0
19/08:10pm 13.8 - 12.2 90 0.9 - - - - - - - 0.0
19/08:00pm 13.9 - 12.1 89 1.0 - - - - - - - 0.0
19/07:50pm 14.0 - 12.2 89 1.0 - - - - - - - 0.0
19/07:40pm 14.1 - 12.2 88 1.0 - - - - - - - 0.0
19/07:30pm 14.0 - 12.2 89 1.0 - - - - - - - 0.0
19/07:20pm 14.1 - 12.1 88 1.1 - - - - - - - 0.0
19/07:10pm 14.1 - 12.1 88 1.1 - - - - - - - 0.0
19/07:00pm 14.0 - 12.1 88 1.0 - - - - - - - 0.0
19/06:50pm 14.0 - 12.1 88 1.0 - - - - - - - 0.0
19/06:40pm 14.0 - 12.1 88 1.0 - - - - - - - 0.0
19/06:30pm 14.1 - 12.1 88 1.1 - - - - - - - 0.0
19/06:20pm 14.2 - 12.1 87 1.2 - - - - - - - 0.0
19/06:10pm 14.3 - 12.2 87 1.2 - - - - - - - 0.0
19/06:00pm 14.6 - 12.1 85 1.4 - - - - - - - 0.0
19/05:50pm 15.0 - 12.1 83 1.6 - - - - - - - 0.0
19/05:40pm 15.5 - 12.1 80 1.9 - - - - - - - 0.0
19/05:30pm 15.7 - 11.9 78 2.1 - - - - - - - 0.0
19/05:20pm 15.4 - 11.7 78 2.0 - - - - - - - 0.0
19/05:10pm 15.4 - 11.5 77 2.1 - - - - - - - 0.0
19/05:00pm 15.6 - 11.4 76 2.3 - - - - - - - 0.0
19/04:50pm 15.9 - 11.5 75 2.4 - - - - - - - 0.0
19/04:40pm 16.3 - 11.5 73 2.6 - - - - - - - 0.0
19/04:30pm 16.8 - 12.0 73 2.7 - - - - - - - 0.0
19/04:20pm 17.3 - 12.1 71 2.9 - - - - - - - 0.0
19/04:10pm 17.7 - 12.0 69 3.2 - - - - - - - 0.0
19/04:00pm 18.2 - 12.3 68 3.3 - - - - - - - 0.0
19/03:50pm 18.6 - 12.5 67 3.5 - - - - - - - 0.0
19/03:40pm 18.9 - 12.0 64 3.9 - - - - - - - 0.0
19/03:30pm 19.1 - 12.4 65 3.8 - - - - - - - 0.0
19/03:20pm 19.3 - 12.3 64 4.0 - - - - - - - 0.0
19/03:10pm 20.0 - 12.5 62 4.3 - - - - - - - 0.0
19/03:00pm 20.4 - 12.2 59 4.7 - - - - - - - 0.0
19/02:50pm 20.6 - 12.6 60 4.6 - - - - - - - 0.0
19/02:40pm 20.6 - 12.5 59 4.7 - - - - - - - 0.0
19/02:30pm 18.8 - 13.0 69 3.3 - - - - - - - 0.0
19/02:20pm 18.6 - 13.1 70 3.2 - - - - - - - 0.0
19/02:00pm 19.7 - 12.9 65 3.9 - - - - - - - 0.0
19/01:50pm 20.9 - 12.8 60 4.7 - - - - - - - 0.0
19/01:40pm 21.1 - 13.4 61 4.5 - - - - - - - 0.0
19/01:30pm 21.4 - 13.4 60 4.7 - - - - - - - 0.0
19/01:20pm 20.3 - 12.3 60 4.6 - - - - - - - 0.0
19/01:10pm 19.1 - 11.9 63 4.1 - - - - - - - 0.0
19/01:00pm 19.1 - 12.9 67 3.6 - - - - - - - 0.0
19/12:50pm 19.1 - 13.0 67 3.5 - - - - - - - 0.0
19/12:40pm 19.2 - 13.0 67 3.6 - - - - - - - 0.0
19/12:30pm 19.4 - 13.2 67 3.6 - - - - - - - 0.0
19/12:20pm 19.6 - 13.1 66 3.8 - - - - - - - 0.0
19/12:10pm 20.3 - 13.1 63 4.2 - - - - - - - 0.0
19/12:00pm 19.7 - 13.2 66 3.8 - - - - - - - 0.0
19/11:50am 19.5 - 12.3 63 4.1 - - - - - - - 0.0
19/11:40am 18.0 - 12.7 71 3.0 - - - - - - - 0.0
19/11:30am 18.3 - 13.2 72 2.9 - - - - - - - 0.0
19/11:20am 18.2 - 13.0 71 3.0 - - - - - - - 0.0
19/11:10am 18.7 - 14.1 74 2.7 - - - - - - - 0.0
19/11:00am 20.0 - 13.8 67 3.6 - - - - - - - 0.0
19/10:50am 19.7 - 13.8 69 3.5 - - - - - - - 0.0
19/10:40am 18.2 - 13.9 76 2.5 - - - - - - - 0.0
19/10:30am 18.0 - 14.1 78 2.3 - - - - - - - 0.0
19/10:20am 18.5 - 14.4 77 2.4 - - - - - - - 0.0
19/10:10am 18.6 - 14.0 74 2.7 - - - - - - - 0.0
19/10:00am 17.9 - 13.9 77 2.3 - - - - - - - 0.0
19/09:50am 17.0 - 13.7 81 1.9 - - - - - - - 0.0
19/09:40am 16.8 - 13.7 82 1.8 - - - - - - - 0.0
19/09:30am 16.3 - 14.0 86 1.3 - - - - - - - 0.0
19/09:20am 16.1 - 13.8 86 1.3 - - - - - - - 0.0
19/09:10am 15.7 - 13.7 88 1.1 - - - - - - - 0.0
19/09:00am 15.6 - 13.8 89 1.0 - - - - - - - 0.0
19/08:50am 15.3 - 13.7 90 0.9 - - - - - - - 0.0
19/08:40am 15.0 - 13.8 92 0.7 - - - - - - - 0.0
19/08:30am 14.8 - 13.9 94 0.5 - - - - - - - 0.0
19/08:20am 14.5 - 13.7 95 0.5 - - - - - - - 0.0
19/08:10am 14.2 - 13.5 96 0.4 - - - - - - - 0.0
19/08:00am 14.1 - 13.4 96 0.4 - - - - - - - 0.0
19/07:50am 13.9 - 13.2 96 0.4 - - - - - - - 0.0
19/07:40am 13.9 - 13.2 96 0.4 - - - - - - - 0.0
19/07:30am 13.5 - 12.9 96 0.3 - - - - - - - 0.0
19/07:20am 13.2 - 12.5 95 0.4 - - - - - - - 0.0
19/07:10am 13.1 - 12.5 96 0.3 - - - - - - - 0.0
19/07:00am 12.8 - 12.2 96 0.3 - - - - - - - 0.0
19/06:50am 12.7 - 12.0 95 0.4 - - - - - - - 0.0
19/06:40am 12.7 - 12.1 96 0.3 - - - - - - - 0.0
19/06:30am 12.7 - 12.1 96 0.3 - - - - - - - 0.0
19/06:20am 12.7 - 12.0 95 0.4 - - - - - - - 0.0
19/06:10am 12.9 - 12.2 95 0.4 - - - - - - - 0.0
19/06:00am 12.5 - 11.8 95 0.4 - - - - - - - 0.0
19/05:50am 12.4 - 11.7 95 0.4 - - - - - - - 0.0
19/05:40am 12.6 - 11.9 95 0.4 - - - - - - - 0.0
19/05:30am 12.4 - 11.7 95 0.4 - - - - - - - 0.0
19/05:20am 12.9 - 12.2 95 0.4 - - - - - - - 0.0
19/05:10am 13.0 - 12.3 95 0.4 - - - - - - - 0.0
19/05:00am 13.2 - 12.5 95 0.4 - - - - - - - 0.0
19/04:50am 13.2 - 12.5 95 0.4 - - - - - - - 0.0
19/04:40am 13.0 - 12.3 95 0.4 - - - - - - - 0.0
19/04:30am 12.9 - 12.2 95 0.4 - - - - - - - 0.0
19/04:20am 12.6 - 11.9 95 0.4 - - - - - - - 0.0
19/04:10am 12.5 - 11.8 95 0.4 - - - - - - - 0.0
19/04:00am 12.5 - 11.8 95 0.4 - - - - - - - 0.0
19/03:50am 12.5 - 11.8 95 0.4 - - - - - - - 0.0
19/03:40am 12.4 - 11.7 95 0.4 - - - - - - - 0.0
19/03:30am 12.4 - 11.7 95 0.4 - - - - - - - 0.0
19/03:20am 12.4 - 11.7 95 0.4 - - - - - - - 0.0
19/03:10am 12.3 - 11.6 95 0.4 - - - - - - - 0.0
19/03:00am 12.5 - 11.8 95 0.4 - - - - - - - 0.0
19/02:50am 13.0 - 12.3 95 0.4 - - - - - - - 0.0
19/02:40am 12.8 - 12.1 95 0.4 - - - - - - - 0.0
19/02:30am 12.8 - 12.1 95 0.4 - - - - - - - 0.0
19/02:20am 12.9 - 12.2 95 0.4 - - - - - - - 0.0
19/02:10am 12.6 - 11.9 95 0.4 - - - - - - - 0.0
19/02:00am 12.5 - 11.8 95 0.4 - - - - - - - 0.0
19/01:50am 12.5 - 11.8 95 0.4 - - - - - - - 0.0
19/01:40am 12.5 - 11.8 95 0.4 - - - - - - - 0.0
19/01:30am 12.8 - 12.1 95 0.4 - - - - - - - 0.0
19/01:20am 12.2 - 11.5 95 0.4 - - - - - - - 0.0
19/01:10am 12.5 - 11.8 95 0.4 - - - - - - - 0.0
19/01:00am 12.5 - 11.8 95 0.4 - - - - - - - 0.0
19/12:50am 12.4 - 11.8 96 0.3 - - - - - - - 0.0
19/12:40am 12.3 - 11.6 95 0.4 - - - - - - - 0.0
19/12:30am 12.2 - 11.5 95 0.4 - - - - - - - 0.0
19/12:20am 12.3 - 11.6 95 0.4 - - - - - - - 0.0
19/12:10am 12.3 - 11.6 95 0.4 - - - - - - - 0.0
19/12:00am 12.4 - 11.7 95 0.4 - - - - - - - 0.0
 
Date/Time
EST
Temp
°C
App
Temp
°C
Dew
Point
°C
Rel
Hum
%
Delta-T
°C
Wind Press
QNH
hPa
Press
MSL
hPa
Rain since
9am
mm
Dir  Spd
km/h
Gust
km/h
Spd
kts
Gust
kts
18/11:50pm 12.5 - 11.7 95 0.4 - - - - - - - 0.0
18/11:40pm 12.5 - 11.8 95 0.4 - - - - - - - 0.0
18/11:30pm 12.6 - 11.9 95 0.4 - - - - - - - 0.0
18/11:20pm 12.7 - 12.0 95 0.4 - - - - - - - 0.0
18/11:10pm 12.7 - 12.0 95 0.4 - - - - - - - 0.0
18/11:00pm 12.9 - 12.1 95 0.4 - - - - - - - 0.0
18/10:50pm 13.0 - 12.2 95 0.4 - - - - - - - 0.0
18/10:40pm 13.1 - 12.3 95 0.4 - - - - - - - 0.0
18/10:30pm 13.2 - 12.4 95 0.4 - - - - - - - 0.0
18/10:20pm 13.0 - 12.2 95 0.4 - - - - - - - 0.0
18/10:10pm 13.0 - 12.2 95 0.4 - - - - - - - 0.0
18/10:00pm 13.1 - 12.2 94 0.5 - - - - - - - 0.0
18/09:50pm 13.3 - 12.5 95 0.4 - - - - - - - 0.0
18/09:40pm 13.4 - 12.5 94 0.5 - - - - - - - 0.0
18/09:30pm 13.4 - 12.4 94 0.6 - - - - - - - 0.0
18/09:20pm 13.4 - 12.5 94 0.5 - - - - - - - 0.0
18/09:10pm 13.6 - 12.7 94 0.5 - - - - - - - 0.0
18/09:00pm 13.4 - 12.4 94 0.6 - - - - - - - 0.0
18/08:50pm 13.3 - 12.2 93 0.6 - - - - - - - 0.0
18/08:40pm 13.6 - 12.4 92 0.7 - - - - - - - 0.0

Other formats

Comma delimited format used in spreadsheet applications
http://www.bom.gov.au/fwo/IDN60801/IDN60801.99110.axf

JavaScript Object Notation format (JSON) in row-major order
http://www.bom.gov.au/fwo/IDN60801/IDN60801.99110.json

Data quality

Most of these data are generated automatically and are frequently updated. Quality checks on data are not normally performed. It is possible for incorrect values to appear. Refer to information at About Latest Weather Observations and please check the disclaimer before using these data.